createdAt,value
2018-07-24T16:58:22.218Z,30.40
2018-07-24T17:00:50.750Z,29.40
2018-07-24T17:03:19.281Z,28.10
2018-07-24T17:05:47.858Z,27.70
2018-07-24T17:08:16.624Z,27.40
2018-07-24T17:10:45.238Z,27.50
2018-07-24T17:13:13.798Z,27.60
2018-07-24T17:15:42.306Z,28.10
2018-07-24T17:18:10.832Z,27.10
2018-07-24T17:20:39.402Z,26.90
2018-07-24T17:23:07.953Z,27.50
2018-07-24T17:25:38.255Z,28.00
2018-07-24T17:28:07.691Z,28.30
2018-07-24T17:33:10.551Z,27.60
2018-07-24T17:35:39.158Z,27.10
2018-07-24T17:38:07.695Z,27.00
2018-07-24T17:40:36.243Z,27.30
2018-07-24T17:43:04.796Z,27.40
2018-07-24T17:45:33.308Z,27.00
2018-07-24T17:48:01.991Z,26.80
2018-07-24T17:50:30.640Z,26.60
2018-07-24T17:52:59.083Z,26.50
2018-07-24T17:55:27.578Z,26.50
2018-07-24T17:57:56.097Z,26.50
2018-07-24T18:00:24.842Z,26.50
2018-07-24T18:03:55.898Z,26.50
2018-07-24T18:06:24.407Z,26.50
2018-07-24T18:08:53.031Z,26.50
2018-07-24T18:11:21.571Z,26.40
2018-07-24T18:13:50.092Z,26.70
2018-07-24T18:16:18.604Z,26.90
2018-07-24T18:18:47.177Z,26.90
2018-07-24T18:21:15.802Z,26.90
2018-07-24T18:23:44.334Z,26.90
2018-07-24T18:26:12.813Z,26.90
2018-07-24T18:28:41.343Z,26.90
2018-07-24T18:31:09.823Z,26.90
2018-07-24T18:33:38.423Z,26.90
2018-07-24T18:36:06.935Z,26.90
2018-07-24T18:38:35.533Z,26.90
2018-07-24T18:41:04.070Z,26.90
2018-07-24T18:43:32.533Z,26.90
2018-07-24T18:46:01.024Z,26.80
2018-07-24T18:48:29.601Z,26.80
2018-07-24T18:50:58.303Z,26.80
2018-07-24T18:53:26.840Z,26.80
2018-07-24T18:55:55.461Z,26.80
2018-07-24T18:58:24.599Z,26.80
2018-07-24T19:00:53.164Z,26.80
2018-07-24T19:03:21.711Z,26.80
2018-07-24T19:05:50.349Z,26.70
2018-07-24T19:08:19.077Z,26.70
2018-07-24T19:10:47.556Z,26.70
2018-07-24T19:13:16.045Z,26.70
2018-07-24T19:15:44.646Z,26.70
2018-07-24T19:18:13.246Z,26.60
2018-07-24T19:20:41.642Z,26.60
2018-07-24T19:23:10.274Z,26.60
2018-07-24T19:25:38.897Z,26.60
2018-07-24T19:28:07.462Z,26.60
2018-07-24T19:30:36.097Z,26.60
2018-07-24T19:33:04.606Z,26.60
2018-07-24T19:35:33.134Z,26.60
2018-07-24T19:38:01.571Z,26.60
2018-07-24T19:40:30.093Z,26.60
2018-07-24T19:42:58.576Z,26.60
2018-07-24T19:45:27.102Z,26.60
2018-07-24T19:47:55.593Z,26.60
2018-07-24T19:50:24.130Z,26.60
2018-07-24T19:52:52.658Z,26.60
2018-07-24T19:55:21.150Z,26.60
2018-07-24T19:57:51.448Z,26.50
2018-07-24T20:00:19.968Z,26.40
2018-07-24T20:02:48.490Z,26.30
2018-07-24T20:05:17.564Z,26.30
2018-07-24T20:07:46.040Z,26.30
2018-07-24T20:12:43.224Z,26.30
2018-07-24T20:15:17.757Z,26.30
2018-07-24T20:17:46.282Z,26.30
2018-07-24T20:20:15.721Z,26.30
2018-07-24T20:22:44.465Z,26.30
2018-07-24T20:25:13.828Z,26.30
2018-07-24T20:27:44.165Z,26.30
2018-07-24T20:30:12.879Z,26.20
2018-07-24T20:32:41.485Z,26.20
2018-07-24T20:35:10.069Z,26.30
2018-07-24T20:37:38.526Z,26.30
2018-07-24T20:40:07.321Z,26.30
2018-07-24T20:42:36.337Z,26.30
2018-07-24T20:45:05.615Z,26.30
2018-07-24T20:47:34.189Z,26.30
2018-07-24T20:50:02.982Z,26.30
2018-07-24T20:52:31.936Z,26.30
2018-07-24T20:55:00.502Z,26.30
2018-07-24T20:57:30.225Z,26.30
2018-07-24T20:59:59.160Z,26.30
2018-07-24T21:02:27.647Z,26.30
2018-07-24T21:04:56.177Z,26.30
2018-07-24T21:07:24.709Z,26.30
2018-07-24T21:09:53.791Z,26.30
2018-07-24T21:12:22.286Z,26.30
2018-07-24T21:14:51.014Z,26.30
2018-07-24T21:17:20.005Z,26.30
2018-07-24T21:19:48.697Z,26.30
2018-07-24T21:22:17.189Z,26.30
2018-07-24T21:24:45.755Z,26.30
2018-07-24T21:27:14.291Z,26.30
2018-07-24T21:29:42.762Z,26.30
2018-07-24T21:32:11.238Z,26.30
2018-07-24T21:34:40.412Z,26.30
2018-07-24T21:39:42.317Z,26.30
2018-07-24T21:42:11.653Z,26.30
2018-07-24T21:44:40.155Z,26.30
2018-07-24T21:47:08.659Z,26.30
2018-07-24T21:49:37.217Z,26.30
2018-07-24T21:52:05.780Z,26.30
2018-07-24T21:54:34.302Z,26.30
2018-07-24T21:57:02.812Z,26.30
2018-07-24T21:59:31.609Z,26.30
2018-07-24T22:02:00.149Z,26.20
2018-07-24T22:04:28.687Z,26.20
2018-07-24T22:06:57.250Z,26.10
2018-07-24T22:09:25.799Z,26.10
2018-07-24T22:11:54.382Z,26.10
2018-07-24T22:14:22.970Z,26.10
2018-07-24T22:16:51.463Z,26.10
2018-07-24T22:19:19.991Z,26.10
2018-07-24T22:21:48.526Z,26.00
2018-07-24T22:24:17.056Z,26.00
2018-07-24T22:26:45.583Z,26.00
2018-07-24T22:29:14.299Z,26.00
2018-07-24T22:31:42.857Z,26.00
2018-07-24T22:34:11.349Z,26.10
2018-07-24T22:36:39.893Z,26.00
2018-07-24T22:39:10.018Z,26.00
2018-07-24T22:41:38.554Z,26.00
2018-07-24T22:44:07.054Z,26.00
2018-07-24T22:46:35.878Z,26.00
2018-07-24T22:49:04.647Z,26.00
2018-07-24T22:51:33.159Z,26.00
2018-07-24T22:54:01.674Z,26.00
2018-07-24T22:56:30.187Z,26.00
2018-07-24T22:58:58.726Z,25.90
2018-07-24T23:01:27.237Z,25.90
2018-07-24T23:03:55.774Z,25.90
2018-07-24T23:06:24.294Z,25.90
2018-07-24T23:08:52.787Z,25.90
2018-07-24T23:11:21.315Z,25.90
2018-07-24T23:13:49.854Z,25.90
2018-07-24T23:16:18.371Z,25.80
2018-07-24T23:18:46.867Z,25.80
2018-07-24T23:21:15.363Z,25.80
2018-07-24T23:23:43.891Z,25.80
2018-07-24T23:26:12.398Z,25.80
2018-07-24T23:28:40.922Z,25.80
2018-07-24T23:31:09.453Z,25.80
2018-07-24T23:33:37.954Z,25.80
2018-07-24T23:36:06.535Z,25.80
2018-07-24T23:38:35.382Z,25.80
2018-07-24T23:41:03.962Z,25.70
2018-07-24T23:43:32.513Z,25.70
2018-07-24T23:46:01.303Z,25.70
2018-07-24T23:48:29.825Z,25.70
2018-07-24T23:50:58.306Z,25.70
2018-07-24T23:53:26.826Z,25.70
2018-07-24T23:55:55.335Z,25.70
2018-07-24T23:58:23.951Z,25.70
